createdAt,value
2024-05-09T00:00:00.542Z,8.22
2024-05-09T00:01:00.653Z,8.22
2024-05-09T00:02:00.527Z,8.18
2024-05-09T00:03:01.241Z,8.20
2024-05-09T00:04:00.599Z,8.18
2024-05-09T00:05:00.586Z,8.18
2024-05-09T00:06:00.684Z,8.20
2024-05-09T00:07:00.442Z,8.18
2024-05-09T00:07:59.891Z,8.17
2024-05-09T00:09:00.411Z,8.17
2024-05-09T00:10:00.470Z,8.14
2024-05-09T00:11:01.123Z,8.12
2024-05-09T00:12:00.046Z,8.12
2024-05-09T00:13:00.359Z,8.11
2024-05-09T00:13:59.628Z,8.08
2024-05-09T00:14:59.595Z,8.03
2024-05-09T00:15:59.588Z,8.03
2024-05-09T00:16:59.614Z,8.03
2024-05-09T00:17:59.666Z,7.96
2024-05-09T00:18:59.640Z,7.99
2024-05-09T00:20:00.340Z,7.97
2024-05-09T00:20:59.651Z,8.00
2024-05-09T00:21:59.583Z,7.99
2024-05-09T00:22:59.570Z,7.97
2024-05-09T00:23:59.665Z,7.94
2024-05-09T00:24:59.577Z,7.93
2024-05-09T00:26:00.220Z,7.94
2024-05-09T00:27:00.176Z,7.94
2024-05-09T00:28:00.933Z,7.90
2024-05-09T00:29:00.197Z,7.89
2024-05-09T00:29:59.585Z,7.87
2024-05-09T00:30:59.575Z,7.89
2024-05-09T00:31:59.437Z,7.89
2024-05-09T00:32:59.711Z,7.89
2024-05-09T00:34:00.233Z,7.87
2024-05-09T00:34:59.593Z,7.87
2024-05-09T00:36:00.048Z,7.84
2024-05-09T00:37:00.051Z,7.84
2024-05-09T00:38:00.205Z,7.82
2024-05-09T00:39:00.018Z,7.79
2024-05-09T00:39:59.970Z,7.78
2024-05-09T00:40:59.255Z,7.79
2024-05-09T00:41:59.236Z,7.78
2024-05-09T00:42:59.216Z,7.79
2024-05-09T00:43:59.237Z,7.78
2024-05-09T00:44:59.196Z,7.77
2024-05-09T00:45:59.160Z,7.77
2024-05-09T00:46:59.926Z,7.75
2024-05-09T00:47:59.450Z,7.74
2024-05-09T00:48:59.216Z,7.71
2024-05-09T00:49:59.151Z,7.69
2024-05-09T00:50:59.101Z,7.67
2024-05-09T00:51:59.083Z,7.63
2024-05-09T00:52:59.123Z,7.59
2024-05-09T00:53:59.077Z,7.56
2024-05-09T00:54:59.141Z,7.52
2024-05-09T00:55:59.064Z,7.52
2024-05-09T00:56:59.145Z,7.52
2024-05-09T00:57:58.999Z,7.52
2024-05-09T00:58:59.034Z,7.47
2024-05-09T00:59:59.764Z,7.47
2024-05-09T01:00:58.985Z,7.42
2024-05-09T01:01:59.007Z,7.40
2024-05-09T01:02:59.082Z,7.41
2024-05-09T01:03:59.274Z,7.38
2024-05-09T01:04:59.769Z,7.37
2024-05-09T01:05:59.751Z,7.40
2024-05-09T01:07:00.833Z,7.38
2024-05-09T01:07:59.668Z,7.40
2024-05-09T01:08:58.843Z,7.40
2024-05-09T01:09:59.590Z,7.41
2024-05-09T01:10:58.889Z,7.41
2024-05-09T01:11:59.624Z,7.41
2024-05-09T01:12:58.839Z,7.40
2024-05-09T01:13:58.810Z,7.37
2024-05-09T01:14:58.808Z,7.35
2024-05-09T01:15:58.768Z,7.31
2024-05-09T01:16:58.822Z,7.31
2024-05-09T01:17:59.325Z,7.29
2024-05-09T01:18:58.809Z,7.29
2024-05-09T01:19:59.498Z,7.29
2024-05-09T01:20:58.700Z,7.27
2024-05-09T01:21:58.701Z,7.24
2024-05-09T01:22:58.976Z,7.24
2024-05-09T01:23:58.788Z,7.24
2024-05-09T01:24:58.642Z,7.22
2024-05-09T01:25:58.962Z,7.19
2024-05-09T01:26:58.611Z,7.19
2024-05-09T01:27:58.597Z,7.19
2024-05-09T01:28:58.982Z,7.23
2024-05-09T01:29:59.978Z,7.24
2024-05-09T01:30:59.972Z,7.24
2024-05-09T01:31:59.242Z,7.26
2024-05-09T01:32:58.684Z,7.24
2024-05-09T01:33:58.744Z,7.24
2024-05-09T01:34:58.666Z,7.23
2024-05-09T01:35:59.221Z,7.24
2024-05-09T01:36:58.605Z,7.24
2024-05-09T01:37:59.299Z,7.20
2024-05-09T01:38:58.856Z,7.20
2024-05-09T01:39:58.858Z,7.19
2024-05-09T01:40:58.484Z,7.13
2024-05-09T01:41:59.194Z,7.12
2024-05-09T01:43:00.342Z,7.09
2024-05-09T01:43:59.158Z,7.05
2024-05-09T01:44:58.357Z,7.02
2024-05-09T01:45:58.355Z,6.99
2024-05-09T01:46:58.464Z,6.97
2024-05-09T01:47:59.176Z,6.99
2024-05-09T01:48:58.464Z,6.99
2024-05-09T01:49:58.341Z,6.98
2024-05-09T01:50:58.319Z,6.98
2024-05-09T01:51:58.258Z,6.99
2024-05-09T01:52:58.266Z,6.95
2024-05-09T01:53:58.238Z,6.94
2024-05-09T01:55:00.095Z,6.91
2024-05-09T01:55:58.242Z,6.90
2024-05-09T01:56:58.235Z,6.90
2024-05-09T01:57:58.217Z,6.90
2024-05-09T01:58:58.207Z,6.90
2024-05-09T01:59:58.165Z,6.86
2024-05-09T02:00:59.578Z,6.86
2024-05-09T02:01:59.024Z,6.89
2024-05-09T02:02:58.246Z,6.90
2024-05-09T02:03:58.370Z,6.89
2024-05-09T02:04:58.163Z,6.90
2024-05-09T02:05:58.106Z,6.87
2024-05-09T02:06:58.060Z,6.86
2024-05-09T02:07:58.092Z,6.84
2024-05-09T02:08:58.051Z,6.84
2024-05-09T02:09:58.227Z,6.86
2024-05-09T02:10:58.364Z,6.86
2024-05-09T02:11:59.526Z,6.83
2024-05-09T02:12:59.391Z,6.80
2024-05-09T02:13:58.038Z,6.77
2024-05-09T02:14:58.702Z,6.73
2024-05-09T02:15:59.350Z,6.72
2024-05-09T02:16:58.860Z,6.72
2024-05-09T02:17:58.748Z,6.73
2024-05-09T02:18:58.738Z,6.72
2024-05-09T02:19:58.687Z,6.72
2024-05-09T02:20:58.701Z,6.73
2024-05-09T02:21:58.625Z,6.73
2024-05-09T02:22:57.890Z,6.73
2024-05-09T02:23:57.867Z,6.71
2024-05-09T02:24:58.605Z,6.69
2024-05-09T02:25:57.859Z,6.66
2024-05-09T02:26:58.560Z,6.63
2024-05-09T02:27:58.526Z,6.65
2024-05-09T02:28:59.265Z,6.66
2024-05-09T02:29:58.525Z,6.66
2024-05-09T02:30:58.516Z,6.69
2024-05-09T02:31:58.520Z,6.69
2024-05-09T02:32:58.714Z,6.68
2024-05-09T02:33:58.635Z,6.65
2024-05-09T02:34:58.477Z,6.62
2024-05-09T02:35:58.461Z,6.62
2024-05-09T02:36:58.437Z,6.62
2024-05-09T02:37:58.442Z,6.63
2024-05-09T02:38:58.194Z,6.63
2024-05-09T02:39:58.397Z,6.61
2024-05-09T02:40:58.415Z,6.58
2024-05-09T02:41:58.373Z,6.58
2024-05-09T02:42:58.336Z,6.56
2024-05-09T02:43:59.048Z,6.53
2024-05-09T02:44:58.334Z,6.56
2024-05-09T02:45:58.306Z,6.59
2024-05-09T02:46:58.340Z,6.62
2024-05-09T02:47:58.839Z,6.65
2024-05-09T02:48:58.364Z,6.63
2024-05-09T02:49:58.298Z,6.63
2024-05-09T02:50:58.312Z,6.63
2024-05-09T02:51:58.216Z,6.61
2024-05-09T02:52:58.205Z,6.61
2024-05-09T02:53:58.266Z,6.59
2024-05-09T02:54:58.183Z,6.59
2024-05-09T02:55:58.240Z,6.56
2024-05-09T02:56:58.844Z,6.54
2024-05-09T02:57:58.168Z,6.53
2024-05-09T02:58:58.164Z,6.48
2024-05-09T02:59:58.128Z,6.46
2024-05-09T03:00:58.138Z,6.44
2024-05-09T03:01:58.132Z,6.41
2024-05-09T03:02:59.441Z,6.38
2024-05-09T03:03:59.402Z,6.40
2024-05-09T03:04:58.208Z,6.35
2024-05-09T03:05:58.690Z,6.33
2024-05-09T03:06:58.031Z,6.33
2024-05-09T03:07:58.054Z,6.32
2024-05-09T03:08:58.015Z,6.30
2024-05-09T03:09:58.034Z,6.26
2024-05-09T03:10:58.020Z,6.21
2024-05-09T03:11:58.058Z,6.19
2024-05-09T03:12:57.969Z,6.18
2024-05-09T03:13:57.960Z,6.18
2024-05-09T03:14:57.977Z,6.16
2024-05-09T03:15:59.120Z,6.16
2024-05-09T03:16:57.932Z,6.16
2024-05-09T03:17:57.966Z,6.19
2024-05-09T03:18:57.914Z,6.22
2024-05-09T03:19:57.887Z,6.25
2024-05-09T03:20:57.901Z,6.25
2024-05-09T03:21:57.848Z,6.26
2024-05-09T03:22:57.889Z,6.25
2024-05-09T03:23:57.796Z,6.22
2024-05-09T03:24:57.799Z,6.26
2024-05-09T03:25:58.496Z,6.25
2024-05-09T03:26:57.772Z,6.22
2024-05-09T03:27:57.753Z,6.22
2024-05-09T03:28:57.766Z,6.21
2024-05-09T03:29:57.735Z,6.19
2024-05-09T03:30:57.715Z,6.18
2024-05-09T03:31:57.758Z,6.14
2024-05-09T03:32:57.787Z,6.16
2024-05-09T03:33:57.792Z,6.16
2024-05-09T03:34:57.706Z,6.14
2024-05-09T03:35:57.638Z,6.13
2024-05-09T03:36:57.622Z,6.10
2024-05-09T03:37:57.645Z,6.10
2024-05-09T03:38:57.616Z,6.09
2024-05-09T03:39:58.260Z,6.04
2024-05-09T03:40:58.812Z,6.04
2024-05-09T03:41:57.570Z,6.04
2024-05-09T03:42:58.187Z,6.04
2024-05-09T03:43:57.578Z,6.04
2024-05-09T03:44:57.499Z,6.03
2024-05-09T03:45:57.508Z,5.98
2024-05-09T03:46:57.545Z,6.01
2024-05-09T03:47:57.701Z,5.98
2024-05-09T03:48:57.484Z,5.96
2024-05-09T03:49:57.520Z,6.00
2024-05-09T03:50:57.463Z,6.01
2024-05-09T03:51:58.065Z,6.04
2024-05-09T03:52:57.431Z,6.06
2024-05-09T03:53:57.367Z,6.09
2024-05-09T03:54:57.463Z,6.07
2024-05-09T03:55:57.379Z,6.06
2024-05-09T03:56:57.352Z,6.07
2024-05-09T03:57:57.339Z,6.07
2024-05-09T03:58:57.367Z,6.09
2024-05-09T03:59:57.314Z,6.06
2024-05-09T04:00:57.353Z,6.06
2024-05-09T04:01:57.455Z,6.04
2024-05-09T04:02:57.373Z,6.06
2024-05-09T04:03:57.260Z,6.06
2024-05-09T04:04:57.274Z,6.04
2024-05-09T04:05:57.231Z,6.07
2024-05-09T04:06:57.215Z,6.09
2024-05-09T04:07:57.950Z,6.06
2024-05-09T04:08:57.160Z,6.06
2024-05-09T04:09:57.210Z,6.06
2024-05-09T04:10:57.174Z,6.07
2024-05-09T04:11:58.519Z,6.07
2024-05-09T04:12:57.149Z,6.06
2024-05-09T04:13:57.166Z,6.06
2024-05-09T04:14:57.109Z,6.06
2024-05-09T04:15:57.132Z,6.09
2024-05-09T04:16:57.757Z,6.10
2024-05-09T04:17:57.044Z,6.11
2024-05-09T04:18:57.122Z,6.13
2024-05-09T04:19:58.242Z,6.16
2024-05-09T04:20:58.242Z,6.21
2024-05-09T04:21:57.010Z,6.25
2024-05-09T04:22:57.032Z,6.30
2024-05-09T04:23:57.034Z,6.35
2024-05-09T04:24:56.975Z,6.40
2024-05-09T04:25:57.007Z,6.43
2024-05-09T04:26:56.987Z,6.47
2024-05-09T04:27:56.932Z,6.48
2024-05-09T04:28:57.625Z,6.53
2024-05-09T04:29:56.901Z,6.56
2024-05-09T04:30:56.899Z,6.59
2024-05-09T04:31:57.671Z,6.62
2024-05-09T04:32:57.037Z,6.63
2024-05-09T04:33:56.974Z,6.63
2024-05-09T04:34:56.991Z,6.68
2024-05-09T04:35:56.830Z,6.72
2024-05-09T04:36:58.020Z,6.72
2024-05-09T04:37:56.848Z,6.73
2024-05-09T04:38:56.778Z,6.79
2024-05-09T04:39:56.770Z,6.80
2024-05-09T04:40:56.801Z,6.79
2024-05-09T04:41:56.744Z,6.80
2024-05-09T04:42:56.748Z,6.86
2024-05-09T04:43:56.741Z,6.90
2024-05-09T04:44:58.720Z,6.95
2024-05-09T04:45:56.687Z,6.99
2024-05-09T04:46:56.738Z,7.04
2024-05-09T04:47:56.930Z,7.09
2024-05-09T04:48:57.979Z,7.16
2024-05-09T04:49:57.308Z,7.17
2024-05-09T04:50:56.647Z,7.26
2024-05-09T04:51:56.612Z,7.34
2024-05-09T04:52:56.646Z,7.47
2024-05-09T04:53:56.556Z,7.56
2024-05-09T04:54:58.507Z,7.67
2024-05-09T04:55:57.347Z,7.72
2024-05-09T04:56:56.543Z,7.84
2024-05-09T04:57:56.536Z,7.90
2024-05-09T04:58:56.518Z,7.94
2024-05-09T04:59:56.500Z,8.08
2024-05-09T05:00:57.153Z,8.03
2024-05-09T05:01:56.638Z,8.04
2024-05-09T05:02:56.569Z,8.02
2024-05-09T05:03:56.658Z,7.97
2024-05-09T05:04:56.558Z,8.10
2024-05-09T05:05:56.471Z,8.25
2024-05-09T05:06:59.744Z,8.30
2024-05-09T05:07:56.408Z,8.42
2024-05-09T05:08:56.369Z,8.44
2024-05-09T05:09:56.379Z,8.57
2024-05-09T05:10:56.444Z,8.63
2024-05-09T05:11:56.392Z,8.76
2024-05-09T05:12:56.994Z,9.01
2024-05-09T05:13:57.034Z,9.23
2024-05-09T05:14:56.314Z,9.39
2024-05-09T05:15:58.115Z,9.76
2024-05-09T05:16:56.353Z,10.03
2024-05-09T05:17:57.126Z,10.24
2024-05-09T05:18:56.273Z,10.26
2024-05-09T05:19:56.334Z,9.93
2024-05-09T05:20:56.488Z,9.52
2024-05-09T05:21:56.229Z,9.39
2024-05-09T05:22:56.212Z,9.31
2024-05-09T05:23:56.149Z,9.27
2024-05-09T05:24:56.872Z,9.25
2024-05-09T05:25:56.278Z,9.13
2024-05-09T05:26:56.161Z,8.96
2024-05-09T05:27:56.146Z,8.75
2024-05-09T05:28:56.823Z,8.68
2024-05-09T05:29:56.112Z,8.55
2024-05-09T05:30:56.779Z,8.55
2024-05-09T05:31:56.161Z,8.57
2024-05-09T05:32:55.650Z,8.55
2024-05-09T05:33:55.324Z,8.57
2024-05-09T05:34:56.076Z,8.60
2024-05-09T05:35:56.018Z,8.66
2024-05-09T05:36:57.185Z,8.72
2024-05-09T05:37:56.088Z,8.78
2024-05-09T05:38:56.052Z,8.83
2024-05-09T05:39:55.987Z,8.87
2024-05-09T05:40:56.167Z,8.91
2024-05-09T05:41:55.926Z,8.99
2024-05-09T05:42:55.903Z,9.04
2024-05-09T05:43:55.957Z,9.06
2024-05-09T05:44:55.902Z,9.13
2024-05-09T05:45:55.915Z,9.16
2024-05-09T05:46:55.878Z,9.20
2024-05-09T05:47:56.102Z,9.27
2024-05-09T05:48:56.043Z,9.30
2024-05-09T05:49:55.843Z,9.35
2024-05-09T05:50:55.996Z,9.43
2024-05-09T05:51:55.816Z,9.49
2024-05-09T05:52:55.803Z,9.56
2024-05-09T05:53:55.770Z,9.63
2024-05-09T05:54:55.772Z,9.70
2024-05-09T05:55:55.773Z,9.81
2024-05-09T05:56:55.710Z,9.91
2024-05-09T05:57:55.727Z,10.03
2024-05-09T05:58:55.448Z,10.14
2024-05-09T05:59:55.672Z,10.25
2024-05-09T06:00:55.691Z,10.37
2024-05-09T06:01:55.684Z,10.42
2024-05-09T06:02:55.717Z,10.55
2024-05-09T06:03:55.676Z,10.60
2024-05-09T06:04:55.707Z,10.65
2024-05-09T06:05:55.647Z,10.77
2024-05-09T06:06:55.610Z,10.81
2024-05-09T06:07:55.760Z,10.94
2024-05-09T06:08:55.609Z,11.07
2024-05-09T06:09:55.549Z,11.13
2024-05-09T06:10:55.688Z,11.20
2024-05-09T06:11:55.622Z,11.24
2024-05-09T06:12:55.502Z,11.31
2024-05-09T06:13:55.531Z,11.35
2024-05-09T06:14:55.458Z,11.46
2024-05-09T06:15:55.457Z,11.53
2024-05-09T06:16:58.054Z,11.59
2024-05-09T06:17:55.575Z,11.65
2024-05-09T06:18:55.535Z,11.70
2024-05-09T06:19:55.463Z,11.83
2024-05-09T06:20:55.484Z,11.89
2024-05-09T06:21:55.393Z,11.96
2024-05-09T06:22:55.405Z,12.06
2024-05-09T06:23:55.353Z,12.19
2024-05-09T06:24:55.319Z,12.24
2024-05-09T06:25:55.388Z,12.39
2024-05-09T06:26:55.314Z,12.59
2024-05-09T06:27:55.305Z,13.09
2024-05-09T06:28:55.316Z,13.99
2024-05-09T06:29:55.245Z,15.11
2024-05-09T06:30:55.269Z,16.15
2024-05-09T06:31:58.577Z,16.96
2024-05-09T06:32:55.341Z,17.82
2024-05-09T06:33:55.327Z,18.58
2024-05-09T06:34:55.219Z,19.28
2024-05-09T06:35:55.187Z,19.35
2024-05-09T06:36:55.195Z,19.75
2024-05-09T06:37:55.203Z,19.79
2024-05-09T06:38:55.158Z,19.46
2024-05-09T06:39:55.131Z,19.86
2024-05-09T06:40:55.169Z,20.05
2024-05-09T06:41:55.128Z,20.13
2024-05-09T06:42:55.105Z,20.05
2024-05-09T06:43:55.100Z,20.05
2024-05-09T06:44:56.291Z,20.66
2024-05-09T06:45:55.074Z,20.54
2024-05-09T06:46:58.102Z,20.51
2024-05-09T06:47:55.136Z,20.13
2024-05-09T06:48:55.127Z,20.39
2024-05-09T06:49:55.083Z,20.33
2024-05-09T06:50:55.052Z,20.50
2024-05-09T06:51:54.991Z,19.80
2024-05-09T06:52:54.980Z,20.06
2024-05-09T06:53:54.916Z,19.94
2024-05-09T06:54:54.960Z,19.73
2024-05-09T06:55:54.988Z,19.93
2024-05-09T06:56:54.920Z,20.31
2024-05-09T06:57:54.891Z,20.66
2024-05-09T06:58:54.924Z,19.95
2024-05-09T06:59:54.889Z,20.20
2024-05-09T07:00:54.901Z,20.51
2024-05-09T07:01:54.874Z,20.91
2024-05-09T07:02:55.735Z,20.84
2024-05-09T07:03:56.120Z,20.53
2024-05-09T07:04:54.888Z,20.58
2024-05-09T07:05:56.003Z,20.90
2024-05-09T07:06:54.781Z,20.68
2024-05-09T07:07:56.016Z,20.43
2024-05-09T07:08:54.821Z,20.16
2024-05-09T07:09:54.733Z,20.27
2024-05-09T07:10:54.792Z,20.87
2024-05-09T07:11:54.763Z,20.84
2024-05-09T07:12:54.661Z,20.76
2024-05-09T07:13:54.693Z,21.36
2024-05-09T07:14:54.670Z,21.71
2024-05-09T07:15:54.670Z,21.48
2024-05-09T07:16:54.738Z,21.35
2024-05-09T07:17:54.767Z,21.24
2024-05-09T07:18:54.871Z,21.74
2024-05-09T07:19:54.617Z,21.30
2024-05-09T07:20:54.610Z,20.77
2024-05-09T07:21:54.549Z,20.98
2024-05-09T07:22:54.567Z,21.17
2024-05-09T07:23:54.596Z,21.26
2024-05-09T07:24:54.532Z,21.19
2024-05-09T07:25:54.630Z,21.74
2024-05-09T07:26:54.484Z,21.51
2024-05-09T07:27:54.488Z,21.41
2024-05-09T07:28:54.520Z,22.01
2024-05-09T07:29:54.460Z,21.61
2024-05-09T07:30:54.455Z,21.56
2024-05-09T07:31:54.450Z,21.99
2024-05-09T07:32:54.530Z,21.97
2024-05-09T07:33:54.503Z,22.10
2024-05-09T07:34:54.441Z,22.20
2024-05-09T07:35:54.376Z,22.84
2024-05-09T07:36:54.345Z,23.12
2024-05-09T07:37:54.496Z,22.39
2024-05-09T07:38:54.334Z,22.68
2024-05-09T07:39:54.345Z,23.14
2024-05-09T07:40:54.370Z,23.60
2024-05-09T07:41:54.276Z,24.00
2024-05-09T07:42:54.300Z,23.77
2024-05-09T07:43:54.370Z,23.85
2024-05-09T07:44:55.538Z,23.52
2024-05-09T07:45:56.336Z,23.79
2024-05-09T07:48:13.757Z,22.94
2024-05-09T07:49:44.023Z,22.92
2024-05-09T07:50:35.469Z,22.96
2024-05-09T07:52:37.913Z,23.68
2024-05-09T07:53:57.107Z,24.20
2024-05-09T07:54:55.262Z,23.75
2024-05-09T07:55:54.303Z,23.08
2024-05-09T07:56:54.638Z,23.09
2024-05-09T07:57:54.819Z,23.08
2024-05-09T07:58:54.580Z,23.26
2024-05-09T07:59:54.032Z,23.82
2024-05-09T08:00:54.114Z,24.60
2024-05-09T08:01:54.104Z,24.77
2024-05-09T08:02:54.060Z,24.44
2024-05-09T08:03:54.944Z,24.16
2024-05-09T08:04:54.050Z,23.98
2024-05-09T08:05:54.025Z,23.83
2024-05-09T08:06:54.017Z,24.19
2024-05-09T08:07:53.953Z,24.16
2024-05-09T08:08:53.989Z,23.87
2024-05-09T08:09:53.970Z,23.87
2024-05-09T08:10:53.990Z,24.32
2024-05-09T08:11:54.078Z,24.59
2024-05-09T08:12:54.005Z,24.57
2024-05-09T08:13:53.882Z,24.79
2024-05-09T08:14:53.835Z,24.54
2024-05-09T08:15:53.875Z,24.34
2024-05-09T08:16:53.915Z,24.90
2024-05-09T08:17:53.920Z,25.06
2024-05-09T08:18:53.890Z,24.57
2024-05-09T08:19:53.797Z,24.75
2024-05-09T08:20:53.788Z,24.59
2024-05-09T08:21:53.778Z,24.49
2024-05-09T08:22:53.752Z,24.53
2024-05-09T08:23:53.740Z,24.44
2024-05-09T08:24:53.765Z,24.82
2024-05-09T08:25:53.706Z,24.98
2024-05-09T08:26:53.699Z,25.32
2024-05-09T08:27:53.733Z,25.56
2024-05-09T08:28:53.661Z,25.64
2024-05-09T08:29:53.734Z,24.56
2024-05-09T08:30:53.760Z,24.16
2024-05-09T08:31:53.714Z,24.42
2024-05-09T08:32:53.722Z,24.42
2024-05-09T08:33:53.742Z,24.01
2024-05-09T08:34:53.672Z,23.72
2024-05-09T08:35:53.597Z,23.89
2024-05-09T08:36:54.199Z,24.07
2024-05-09T08:37:53.669Z,24.37
2024-05-09T08:38:53.535Z,24.26
2024-05-09T08:39:54.220Z,24.75
2024-05-09T08:40:53.567Z,25.38
2024-05-09T08:41:53.507Z,25.20
2024-05-09T08:42:53.538Z,25.37
2024-05-09T08:43:53.491Z,24.64
2024-05-09T08:44:53.511Z,24.13
2024-05-09T08:45:54.230Z,23.01
2024-05-09T08:46:53.453Z,22.84
2024-05-09T08:47:53.458Z,22.80
2024-05-09T08:48:53.651Z,22.52
2024-05-09T08:49:53.446Z,22.19
2024-05-09T08:50:53.173Z,21.95
2024-05-09T08:51:53.423Z,21.30
2024-05-09T08:52:53.355Z,20.81
2024-05-09T08:53:53.343Z,21.66
2024-05-09T08:54:53.430Z,21.13
2024-05-09T08:55:53.323Z,21.04
2024-05-09T08:56:54.514Z,22.38
2024-05-09T08:57:52.658Z,23.42
2024-05-09T08:58:53.278Z,22.35
2024-05-09T08:59:53.280Z,21.69
2024-05-09T09:00:53.334Z,21.44
2024-05-09T09:01:53.331Z,22.54
2024-05-09T09:02:53.230Z,22.23
2024-05-09T09:03:53.394Z,21.79
2024-05-09T09:04:53.280Z,21.11
2024-05-09T09:05:53.354Z,20.23
2024-05-09T09:06:54.876Z,20.89
2024-05-09T09:07:53.228Z,21.50
2024-05-09T09:08:52.870Z,21.57
2024-05-09T09:09:53.336Z,20.99
2024-05-09T09:10:53.196Z,20.81
2024-05-09T09:11:53.174Z,20.93
2024-05-09T09:12:53.107Z,21.81
2024-05-09T09:13:53.092Z,22.67
2024-05-09T09:14:53.734Z,22.02
2024-05-09T09:15:52.872Z,21.48
2024-05-09T09:16:52.502Z,21.78
2024-05-09T09:17:53.051Z,22.69
2024-05-09T09:18:53.326Z,22.43
2024-05-09T09:19:53.065Z,21.63
2024-05-09T09:20:52.794Z,20.66
2024-05-09T09:21:53.018Z,20.24
2024-05-09T09:22:52.564Z,20.20
2024-05-09T09:23:52.996Z,20.30
2024-05-09T09:24:52.986Z,20.00
2024-05-09T09:25:52.916Z,19.86
2024-05-09T09:26:52.934Z,19.91
2024-05-09T09:27:52.951Z,20.71
2024-05-09T09:28:52.336Z,20.38
2024-05-09T09:29:52.355Z,20.43
2024-05-09T09:30:52.969Z,20.39
2024-05-09T09:31:52.462Z,21.72
2024-05-09T09:32:52.593Z,22.93
2024-05-09T09:33:52.708Z,23.95
2024-05-09T09:34:52.090Z,24.19
2024-05-09T09:35:52.037Z,24.53
2024-05-09T09:36:52.874Z,24.52
2024-05-09T09:37:52.011Z,25.30
2024-05-09T09:38:52.020Z,25.32
2024-05-09T09:39:52.033Z,25.20
2024-05-09T09:40:52.083Z,25.50
2024-05-09T09:41:52.015Z,24.83
2024-05-09T09:42:52.794Z,23.42
2024-05-09T09:43:52.062Z,22.19
2024-05-09T09:45:01.868Z,21.32
2024-05-09T09:45:54.046Z,22.06
2024-05-09T09:46:52.052Z,22.20
2024-05-09T09:47:52.161Z,21.71
2024-05-09T09:48:51.949Z,21.35
2024-05-09T09:49:52.157Z,20.81
2024-05-09T09:50:52.706Z,20.42
2024-05-09T09:51:52.608Z,21.54
2024-05-09T09:52:52.555Z,21.95
2024-05-09T09:53:51.799Z,21.50
2024-05-09T09:54:52.553Z,21.46
2024-05-09T09:55:52.553Z,22.22
2024-05-09T09:56:51.836Z,22.25
2024-05-09T09:57:51.883Z,21.63
2024-05-09T09:58:52.482Z,20.68
2024-05-09T09:59:51.838Z,20.33
2024-05-09T10:00:51.906Z,20.66
2024-05-09T10:01:52.537Z,21.24
2024-05-09T10:02:53.174Z,21.24
2024-05-09T10:03:52.574Z,21.91
2024-05-09T10:04:52.547Z,21.21
2024-05-09T10:05:52.460Z,21.05
2024-05-09T10:06:51.773Z,20.83
2024-05-09T10:07:52.349Z,20.87
2024-05-09T10:08:51.636Z,21.01
2024-05-09T10:09:51.657Z,22.19
2024-05-09T10:10:51.803Z,22.31
2024-05-09T10:11:54.416Z,23.04
2024-05-09T10:12:53.410Z,23.19
2024-05-09T10:13:52.287Z,22.86
2024-05-09T10:14:51.611Z,22.94
2024-05-09T10:15:51.960Z,23.45
2024-05-09T10:16:51.485Z,24.02
2024-05-09T10:17:52.376Z,24.23
2024-05-09T10:18:52.650Z,24.23
2024-05-09T10:19:51.813Z,23.85
2024-05-09T10:20:52.190Z,22.27
2024-05-09T10:21:51.687Z,21.38
2024-05-09T10:22:51.504Z,21.21
2024-05-09T10:23:51.632Z,21.06
2024-05-09T10:24:52.176Z,20.77
2024-05-09T10:25:51.628Z,20.46
2024-05-09T10:26:51.629Z,20.43
2024-05-09T10:27:52.186Z,20.49
2024-05-09T10:28:51.570Z,20.58
2024-05-09T10:29:51.637Z,20.69
2024-05-09T10:30:52.185Z,20.62
2024-05-09T10:31:51.719Z,20.66
2024-05-09T10:32:51.688Z,20.56
2024-05-09T10:33:52.642Z,20.66
2024-05-09T10:34:51.548Z,20.72
2024-05-09T10:35:51.631Z,21.21
2024-05-09T10:36:53.272Z,22.29
2024-05-09T10:37:51.632Z,22.97
2024-05-09T10:38:51.634Z,23.62
2024-05-09T10:39:51.708Z,24.41
2024-05-09T10:40:51.675Z,25.27
2024-05-09T10:41:51.642Z,25.37
2024-05-09T10:42:51.915Z,25.83
2024-05-09T10:43:51.770Z,25.44
2024-05-09T10:44:51.671Z,25.02
2024-05-09T10:45:51.776Z,24.92
2024-05-09T10:46:51.116Z,24.82
2024-05-09T10:47:52.117Z,24.91
2024-05-09T10:48:51.187Z,24.13
2024-05-09T10:49:51.889Z,23.98
2024-05-09T10:50:51.791Z,23.31
2024-05-09T10:51:51.827Z,24.20
2024-05-09T10:52:51.322Z,24.19
2024-05-09T10:53:51.749Z,24.63
2024-05-09T10:54:51.090Z,24.61
2024-05-09T10:55:51.714Z,24.59
2024-05-09T10:56:51.615Z,24.32
2024-05-09T10:57:51.767Z,25.00
2024-05-09T10:58:50.910Z,24.37
2024-05-09T10:59:39.067Z,23.47
2024-05-09T11:00:53.087Z,22.83
2024-05-09T11:01:53.015Z,22.29
2024-05-09T11:02:51.043Z,22.13
2024-05-09T11:03:51.184Z,21.94
2024-05-09T11:04:51.820Z,21.91
2024-05-09T11:05:52.349Z,22.01
2024-05-09T11:06:50.856Z,22.14
2024-05-09T11:07:50.807Z,22.12
2024-05-09T11:08:52.786Z,22.06
2024-05-09T11:09:50.881Z,23.02
2024-05-09T11:10:52.955Z,23.17
2024-05-09T11:11:51.550Z,23.70
2024-05-09T11:12:50.807Z,23.92
2024-05-09T11:13:50.735Z,23.94
2024-05-09T11:14:51.392Z,23.95
2024-05-09T11:15:51.533Z,22.75
2024-05-09T11:16:51.487Z,22.34
2024-05-09T11:17:50.837Z,22.43
2024-05-09T11:18:51.616Z,23.19
2024-05-09T11:19:52.794Z,23.39
2024-05-09T11:20:51.487Z,22.90
2024-05-09T11:21:52.702Z,22.62
2024-05-09T11:22:52.584Z,22.52
2024-05-09T11:23:50.838Z,21.97
2024-05-09T11:24:52.842Z,21.59
2024-05-09T11:25:51.332Z,21.34
2024-05-09T11:26:50.694Z,21.24
2024-05-09T11:27:51.420Z,21.88
2024-05-09T11:28:51.276Z,22.74
2024-05-09T11:29:50.780Z,23.27
2024-05-09T11:30:51.318Z,23.34
2024-05-09T11:31:51.259Z,23.53
2024-05-09T11:32:51.324Z,24.05
2024-05-09T11:33:51.288Z,23.76
2024-05-09T11:34:51.217Z,23.27
2024-05-09T11:35:51.212Z,23.08
2024-05-09T11:36:51.232Z,22.72
2024-05-09T11:37:51.169Z,22.29
2024-05-09T11:38:51.136Z,22.28
2024-05-09T11:39:51.155Z,22.94
2024-05-09T11:40:51.813Z,22.47
2024-05-09T11:41:51.155Z,22.64
2024-05-09T11:42:53.488Z,22.82
2024-05-09T11:43:51.064Z,23.12
2024-05-09T11:44:51.078Z,23.62
2024-05-09T11:45:51.737Z,23.42
2024-05-09T11:46:50.290Z,22.60
2024-05-09T11:47:52.309Z,21.85
2024-05-09T11:48:52.309Z,21.46
2024-05-09T11:49:52.253Z,21.66
2024-05-09T11:50:52.232Z,22.67
2024-05-09T11:51:52.219Z,23.43
2024-05-09T11:52:52.193Z,23.79
2024-05-09T11:53:52.233Z,24.26
2024-05-09T11:54:52.192Z,24.68
2024-05-09T11:55:52.174Z,24.71
2024-05-09T11:56:50.934Z,24.71
2024-05-09T11:57:52.188Z,25.01
2024-05-09T11:58:52.103Z,23.90
2024-05-09T11:59:52.077Z,23.65
2024-05-09T12:00:50.993Z,24.10
2024-05-09T12:01:52.104Z,24.05
2024-05-09T12:02:52.130Z,23.90
2024-05-09T12:03:52.361Z,23.98
2024-05-09T12:04:52.092Z,24.41
2024-05-09T12:05:50.872Z,24.57
2024-05-09T12:06:50.832Z,24.80
2024-05-09T12:07:50.752Z,24.79
2024-05-09T12:08:50.769Z,24.69
2024-05-09T12:09:50.776Z,25.00
2024-05-09T12:10:50.892Z,24.26
2024-05-09T12:11:51.449Z,24.12
2024-05-09T12:12:51.387Z,24.39
2024-05-09T12:13:50.698Z,24.35
2024-05-09T12:14:50.702Z,23.60
2024-05-09T12:15:50.693Z,24.19
2024-05-09T12:16:51.378Z,24.02
2024-05-09T12:17:51.149Z,24.19
2024-05-09T12:18:50.709Z,24.35
2024-05-09T12:19:50.616Z,24.67
2024-05-09T12:20:50.634Z,25.16
2024-05-09T12:21:50.662Z,25.12
2024-05-09T12:22:50.585Z,25.50
2024-05-09T12:23:50.565Z,25.59
2024-05-09T12:24:50.601Z,25.84
2024-05-09T12:25:50.520Z,25.59
2024-05-09T12:26:50.506Z,24.80
2024-05-09T12:27:50.537Z,24.83
2024-05-09T12:28:51.135Z,24.88
2024-05-09T12:29:50.487Z,24.29
2024-05-09T12:30:51.225Z,23.55
2024-05-09T12:31:50.495Z,23.61
2024-05-09T12:32:50.517Z,23.53
2024-05-09T12:33:50.532Z,24.02
2024-05-09T12:34:50.417Z,24.52
2024-05-09T12:35:51.158Z,24.97
2024-05-09T12:36:50.479Z,25.52
2024-05-09T12:37:50.378Z,25.43
2024-05-09T12:38:50.365Z,25.91
2024-05-09T12:39:50.392Z,26.15
2024-05-09T12:40:50.448Z,26.02
2024-05-09T12:41:50.330Z,25.61
2024-05-09T12:42:50.364Z,25.32
2024-05-09T12:43:50.962Z,25.50
2024-05-09T12:44:50.299Z,25.44
2024-05-09T12:45:50.289Z,24.88
2024-05-09T12:46:50.269Z,24.41
2024-05-09T12:47:50.296Z,24.12
2024-05-09T12:48:51.050Z,24.50
2024-05-09T12:49:50.923Z,24.34
2024-05-09T12:50:50.253Z,24.26
2024-05-09T12:51:50.208Z,24.10
2024-05-09T12:52:50.184Z,24.00
2024-05-09T12:53:50.166Z,24.35
2024-05-09T12:54:50.153Z,24.49
2024-05-09T12:55:56.710Z,24.87
2024-05-09T12:56:51.126Z,24.63
2024-05-09T12:57:50.165Z,24.02
2024-05-09T12:58:50.103Z,23.86
2024-05-09T12:59:50.074Z,23.95
2024-05-09T13:00:50.221Z,23.86
2024-05-09T13:01:50.180Z,23.90
2024-05-09T13:02:50.090Z,23.79
2024-05-09T13:03:50.871Z,24.19
2024-05-09T13:04:49.406Z,24.42
2024-05-09T13:05:50.200Z,24.42
2024-05-09T13:06:50.096Z,24.88